sensor_id;sensor_type;location;lat;lon;timestamp;pressure;altitude;pressure_sealevel;temperature;humidity
78117;BME280;69042;59.120;37.904;2023-07-20T00:02:23;98086.97;;;14.40;84.54
78117;BME280;69042;59.120;37.904;2023-07-20T00:04:49;98087.09;;;14.38;84.74
78117;BME280;69042;59.120;37.904;2023-07-20T00:07:15;98078.56;;;14.36;84.73
78117;BME280;69042;59.120;37.904;2023-07-20T00:09:42;98080.47;;;14.34;84.75
78117;BME280;69042;59.120;37.904;2023-07-20T00:12:08;98096.25;;;14.34;84.86
78117;BME280;69042;59.120;37.904;2023-07-20T00:14:34;98088.38;;;14.34;84.88
78117;BME280;69042;59.120;37.904;2023-07-20T00:17:00;98091.69;;;14.36;85.35
78117;BME280;69042;59.120;37.904;2023-07-20T00:19:27;98089.06;;;14.36;85.03
78117;BME280;69042;59.120;37.904;2023-07-20T00:21:54;98085.31;;;14.39;85.07
78117;BME280;69042;59.120;37.904;2023-07-20T00:24:21;98081.72;;;14.40;85.08
78117;BME280;69042;59.120;37.904;2023-07-20T00:26:47;98087.78;;;14.41;85.34
78117;BME280;69042;59.120;37.904;2023-07-20T00:29:14;98085.03;;;14.42;85.40
78117;BME280;69042;59.120;37.904;2023-07-20T00:31:41;98081.41;;;14.43;85.24
78117;BME280;69042;59.120;37.904;2023-07-20T00:34:08;98084.63;;;14.47;85.16
78117;BME280;69042;59.120;37.904;2023-07-20T00:36:34;98096.63;;;14.49;85.25
78117;BME280;69042;59.120;37.904;2023-07-20T00:39:02;98086.00;;;14.51;85.25
78117;BME280;69042;59.120;37.904;2023-07-20T00:41:28;98089.44;;;14.51;85.11
78117;BME280;69042;59.120;37.904;2023-07-20T00:43:55;98084.88;;;14.53;84.92
78117;BME280;69042;59.120;37.904;2023-07-20T00:46:23;98085.47;;;14.57;84.79
78117;BME280;69042;59.120;37.904;2023-07-20T00:51:41;98081.75;;;14.60;84.59
78117;BME280;69042;59.120;37.904;2023-07-20T00:54:08;98083.69;;;14.57;84.75
78117;BME280;69042;59.120;37.904;2023-07-20T00:56:36;98085.47;;;14.57;84.63
78117;BME280;69042;59.120;37.904;2023-07-20T00:59:02;98086.44;;;14.56;84.67
78117;BME280;69042;59.120;37.904;2023-07-20T01:01:29;98083.81;;;14.56;84.58
78117;BME280;69042;59.120;37.904;2023-07-20T01:03:55;98090.97;;;14.54;84.73
78117;BME280;69042;59.120;37.904;2023-07-20T01:06:29;98094.56;;;14.53;84.61
78117;BME280;69042;59.120;37.904;2023-07-20T01:09:11;98099.69;;;14.54;84.55
78117;BME280;69042;59.120;37.904;2023-07-20T01:11:59;98103.19;;;14.55;85.00
78117;BME280;69042;59.120;37.904;2023-07-20T01:14:29;98107.59;;;14.54;84.61
78117;BME280;69042;59.120;37.904;2023-07-20T01:16:55;98101.25;;;14.57;84.77
78117;BME280;69042;59.120;37.904;2023-07-20T01:19:22;98112.59;;;14.57;84.58
78117;BME280;69042;59.120;37.904;2023-07-20T01:22:01;98105.53;;;14.58;84.91
78117;BME280;69042;59.120;37.904;2023-07-20T01:32:40;98110.22;;;14.64;84.51
78117;BME280;69042;59.120;37.904;2023-07-20T01:35:07;98120.19;;;14.61;84.72
78117;BME280;69042;59.120;37.904;2023-07-20T01:37:34;98119.22;;;14.62;84.96
78117;BME280;69042;59.120;37.904;2023-07-20T01:40:01;98116.72;;;14.60;84.63
78117;BME280;69042;59.120;37.904;2023-07-20T01:42:28;98123.09;;;14.57;84.71
78117;BME280;69042;59.120;37.904;2023-07-20T01:44:54;98122.41;;;14.55;84.87
78117;BME280;69042;59.120;37.904;2023-07-20T01:47:23;98120.84;;;14.53;84.74
78117;BME280;69042;59.120;37.904;2023-07-20T01:49:49;98129.84;;;14.50;85.06
78117;BME280;69042;59.120;37.904;2023-07-20T01:52:16;98146.56;;;14.49;85.08
78117;BME280;69042;59.120;37.904;2023-07-20T01:54:44;98138.16;;;14.46;85.33
78117;BME280;69042;59.120;37.904;2023-07-20T01:57:10;98133.84;;;14.45;86.02
78117;BME280;69042;59.120;37.904;2023-07-20T01:59:36;98120.00;;;14.43;85.66
78117;BME280;69042;59.120;37.904;2023-07-20T02:02:02;98127.19;;;14.41;85.81
78117;BME280;69042;59.120;37.904;2023-07-20T02:04:28;98121.94;;;14.41;85.97
78117;BME280;69042;59.120;37.904;2023-07-20T02:06:54;98120.28;;;14.40;86.14
78117;BME280;69042;59.120;37.904;2023-07-20T02:09:22;98137.88;;;14.39;86.61
78117;BME280;69042;59.120;37.904;2023-07-20T02:11:48;98132.63;;;14.39;86.54
78117;BME280;69042;59.120;37.904;2023-07-20T02:14:14;98129.13;;;14.38;86.54
78117;BME280;69042;59.120;37.904;2023-07-20T02:16:41;98139.50;;;14.40;87.10
78117;BME280;69042;59.120;37.904;2023-07-20T02:19:07;98128.72;;;14.43;87.00
78117;BME280;69042;59.120;37.904;2023-07-20T02:21:33;98119.88;;;14.44;86.88
78117;BME280;69042;59.120;37.904;2023-07-20T02:23:59;98128.88;;;14.42;86.91
78117;BME280;69042;59.120;37.904;2023-07-20T02:26:26;98151.41;;;14.44;87.23
78117;BME280;69042;59.120;37.904;2023-07-20T02:28:52;98147.81;;;14.45;87.36
78117;BME280;69042;59.120;37.904;2023-07-20T02:31:18;98132.91;;;14.46;87.16
78117;BME280;69042;59.120;37.904;2023-07-20T02:33:44;98134.41;;;14.48;87.35
78117;BME280;69042;59.120;37.904;2023-07-20T02:36:13;98134.25;;;14.50;87.39
78117;BME280;69042;59.120;37.904;2023-07-20T02:38:39;98129.69;;;14.52;87.35
78117;BME280;69042;59.120;37.904;2023-07-20T02:41:05;98136.50;;;14.54;87.50
78117;BME280;69042;59.120;37.904;2023-07-20T02:43:31;98134.56;;;14.56;87.66
78117;BME280;69042;59.120;37.904;2023-07-20T02:45:58;98140.50;;;14.58;87.39
78117;BME280;69042;59.120;37.904;2023-07-20T02:48:24;98140.69;;;14.57;87.40
78117;BME280;69042;59.120;37.904;2023-07-20T02:50:50;98156.44;;;14.57;87.56
78117;BME280;69042;59.120;37.904;2023-07-20T02:53:19;98150.34;;;14.56;87.68
78117;BME280;69042;59.120;37.904;2023-07-20T02:55:45;98158.78;;;14.60;87.60
78117;BME280;69042;59.120;37.904;2023-07-20T02:58:11;98174.44;;;14.62;87.71
78117;BME280;69042;59.120;37.904;2023-07-20T03:00:37;98158.50;;;14.63;87.75
78117;BME280;69042;59.120;37.904;2023-07-20T03:03:04;98156.56;;;14.65;87.88
78117;BME280;69042;59.120;37.904;2023-07-20T03:05:30;98161.69;;;14.67;87.63
78117;BME280;69042;59.120;37.904;2023-07-20T03:07:56;98160.00;;;14.66;87.44
78117;BME280;69042;59.120;37.904;2023-07-20T03:10:22;98156.44;;;14.67;87.72
78117;BME280;69042;59.120;37.904;2023-07-20T03:12:48;98159.75;;;14.69;87.61
78117;BME280;69042;59.120;37.904;2023-07-20T03:15:15;98169.97;;;14.72;87.79
78117;BME280;69042;59.120;37.904;2023-07-20T03:17:41;98165.56;;;14.72;87.62
78117;BME280;69042;59.120;37.904;2023-07-20T03:20:08;98165.56;;;14.72;87.77
78117;BME280;69042;59.120;37.904;2023-07-20T03:22:36;98166.25;;;14.74;87.76
78117;BME280;69042;59.120;37.904;2023-07-20T03:25:03;98172.34;;;14.75;87.68
78117;BME280;69042;59.120;37.904;2023-07-20T03:27:30;98175.00;;;14.75;87.96
78117;BME280;69042;59.120;37.904;2023-07-20T03:29:59;98174.81;;;14.76;88.09
78117;BME280;69042;59.120;37.904;2023-07-20T03:32:25;98179.13;;;14.77;87.89
78117;BME280;69042;59.120;37.904;2023-07-20T03:34:51;98174.56;;;14.80;87.95
78117;BME280;69042;59.120;37.904;2023-07-20T03:37:17;98175.09;;;14.83;88.12
78117;BME280;69042;59.120;37.904;2023-07-20T03:39:43;98174.84;;;14.86;87.97
78117;BME280;69042;59.120;37.904;2023-07-20T03:42:09;98181.63;;;14.89;88.01
78117;BME280;69042;59.120;37.904;2023-07-20T03:44:36;98179.81;;;14.89;88.00
78117;BME280;69042;59.120;37.904;2023-07-20T03:47:03;98183.25;;;14.90;87.92
78117;BME280;69042;59.120;37.904;2023-07-20T03:49:30;98184.94;;;14.91;87.93
78117;BME280;69042;59.120;37.904;2023-07-20T03:51:56;98171.78;;;14.91;87.87
78117;BME280;69042;59.120;37.904;2023-07-20T03:54:22;98172.75;;;14.90;87.93
78117;BME280;69042;59.120;37.904;2023-07-20T03:56:49;98184.25;;;14.89;88.04
78117;BME280;69042;59.120;37.904;2023-07-20T03:59:15;98172.75;;;14.90;88.14
78117;BME280;69042;59.120;37.904;2023-07-20T04:01:41;98171.78;;;14.91;87.98
78117;BME280;69042;59.120;37.904;2023-07-20T04:04:07;98175.38;;;14.90;88.00
78117;BME280;69042;59.120;37.904;2023-07-20T04:06:36;98165.84;;;14.89;88.08
78117;BME280;69042;59.120;37.904;2023-07-20T04:09:03;98163.22;;;14.89;88.10
78117;BME280;69042;59.120;37.904;2023-07-20T04:11:31;98159.88;;;14.87;87.97
78117;BME280;69042;59.120;37.904;2023-07-20T04:13:57;98167.22;;;14.93;88.25
78117;BME280;69042;59.120;37.904;2023-07-20T04:16:23;98158.22;;;14.95;88.40
78117;BME280;69042;59.120;37.904;2023-07-20T04:18:49;98160.28;;;15.02;88.43
78117;BME280;69042;59.120;37.904;2023-07-20T04:21:16;98163.88;;;15.01;88.22
78117;BME280;69042;59.120;37.904;2023-07-20T04:23:42;98172.34;;;15.04;88.28
78117;BME280;69042;59.120;37.904;2023-07-20T04:26:08;98172.88;;;15.08;88.41
78117;BME280;69042;59.120;37.904;2023-07-20T04:28:35;98180.19;;;15.14;88.62
78117;BME280;69042;59.120;37.904;2023-07-20T04:31:14;98177.16;;;15.18;88.52
78117;BME280;69042;59.120;37.904;2023-07-20T04:33:42;98170.78;;;15.21;88.29
78117;BME280;69042;59.120;37.904;2023-07-20T04:36:09;98180.19;;;15.24;88.28
78117;BME280;69042;59.120;37.904;2023-07-20T04:38:35;98175.75;;;15.24;88.33
78117;BME280;69042;59.120;37.904;2023-07-20T04:41:09;98182.69;;;15.25;88.83
78117;BME280;69042;59.120;37.904;2023-07-20T04:43:41;98193.72;;;15.29;88.37
78117;BME280;69042;59.120;37.904;2023-07-20T04:46:12;98193.19;;;15.25;88.32
78117;BME280;69042;59.120;37.904;2023-07-20T04:48:39;98198.88;;;15.20;88.34
78117;BME280;69042;59.120;37.904;2023-07-20T04:51:06;98203.47;;;15.18;88.36
78117;BME280;69042;59.120;37.904;2023-07-20T04:53:33;98198.19;;;15.18;88.18
78117;BME280;69042;59.120;37.904;2023-07-20T04:55:59;98210.66;;;15.16;88.00
78117;BME280;69042;59.120;37.904;2023-07-20T04:58:28;98196.13;;;15.12;87.97
78117;BME280;69042;59.120;37.904;2023-07-20T05:00:55;98202.63;;;15.08;87.94
78117;BME280;69042;59.120;37.904;2023-07-20T05:03:21;98189.75;;;15.05;87.74
78117;BME280;69042;59.120;37.904;2023-07-20T05:05:48;98198.78;;;15.03;87.98
78117;BME280;69042;59.120;37.904;2023-07-20T05:08:15;98191.84;;;15.02;87.94
78117;BME280;69042;59.120;37.904;2023-07-20T05:10:42;98198.06;;;15.01;87.83
78117;BME280;69042;59.120;37.904;2023-07-20T05:13:08;98203.34;;;15.01;88.00
78117;BME280;69042;59.120;37.904;2023-07-20T05:15:35;98196.00;;;15.04;88.15
78117;BME280;69042;59.120;37.904;2023-07-20T05:18:03;98197.38;;;15.08;88.27
78117;BME280;69042;59.120;37.904;2023-07-20T05:20:29;98195.59;;;15.09;88.10
78117;BME280;69042;59.120;37.904;2023-07-20T05:22:57;98201.94;;;15.06;88.09
78117;BME280;69042;59.120;37.904;2023-07-20T05:25:23;98186.00;;;15.08;88.16
78117;BME280;69042;59.120;37.904;2023-07-20T05:27:50;98197.09;;;15.11;88.29
78117;BME280;69042;59.120;37.904;2023-07-20T05:30:16;98200.44;;;15.13;88.27
78117;BME280;69042;59.120;37.904;2023-07-20T05:32:42;98200.81;;;15.18;88.26
78117;BME280;69042;59.120;37.904;2023-07-20T05:35:11;98202.34;;;15.21;88.18
78117;BME280;69042;59.120;37.904;2023-07-20T05:37:37;98195.97;;;15.24;88.19
78117;BME280;69042;59.120;37.904;2023-07-20T05:40:05;98204.41;;;15.27;87.51
78117;BME280;69042;59.120;37.904;2023-07-20T05:42:32;98199.00;;;15.29;88.01
78117;BME280;69042;59.120;37.904;2023-07-20T05:44:58;98197.06;;;15.31;88.10
78117;BME280;69042;59.120;37.904;2023-07-20T05:47:24;98194.16;;;15.34;88.17
78117;BME280;69042;59.120;37.904;2023-07-20T05:49:50;98192.31;;;15.44;88.22
78117;BME280;69042;59.120;37.904;2023-07-20T05:52:16;98196.19;;;15.50;88.20
78117;BME280;69042;59.120;37.904;2023-07-20T05:54:42;98192.00;;;15.57;87.93
78117;BME280;69042;59.120;37.904;2023-07-20T05:57:09;98194.91;;;15.64;87.92
78117;BME280;69042;59.120;37.904;2023-07-20T05:59:35;98187.00;;;15.73;87.69
78117;BME280;69042;59.120;37.904;2023-07-20T06:02:02;98193.19;;;15.82;87.70
78117;BME280;69042;59.120;37.904;2023-07-20T06:04:28;98188.88;;;15.91;87.59
78117;BME280;69042;59.120;37.904;2023-07-20T06:06:54;98194.50;;;16.06;87.80
78117;BME280;69042;59.120;37.904;2023-07-20T06:09:20;98188.72;;;16.20;87.57
78117;BME280;69042;59.120;37.904;2023-07-20T06:11:46;98181.44;;;16.32;87.49
78117;BME280;69042;59.120;37.904;2023-07-20T06:14:13;98193.13;;;16.47;87.43
78117;BME280;69042;59.120;37.904;2023-07-20T06:16:39;98188.75;;;16.56;86.65
78117;BME280;69042;59.120;37.904;2023-07-20T06:19:05;98192.31;;;16.64;86.50
78117;BME280;69042;59.120;37.904;2023-07-20T06:21:31;98192.22;;;16.74;86.08
78117;BME280;69042;59.120;37.904;2023-07-20T06:23:58;98189.41;;;16.85;85.73
78117;BME280;69042;59.120;37.904;2023-07-20T06:26:24;98193.06;;;16.93;85.11
78117;BME280;69042;59.120;37.904;2023-07-20T06:28:50;98197.22;;;16.95;84.51
78117;BME280;69042;59.120;37.904;2023-07-20T06:31:17;98198.75;;;16.98;84.02
78117;BME280;69042;59.120;37.904;2023-07-20T06:33:43;98195.78;;;17.01;83.52
78117;BME280;69042;59.120;37.904;2023-07-20T06:36:09;98209.94;;;17.00;82.84
78117;BME280;69042;59.120;37.904;2023-07-20T06:38:36;98222.03;;;17.02;82.61
78117;BME280;69042;59.120;37.904;2023-07-20T06:41:02;98209.53;;;17.04;82.72
78117;BME280;69042;59.120;37.904;2023-07-20T06:43:29;98204.59;;;17.10;82.35
78117;BME280;69042;59.120;37.904;2023-07-20T06:45:55;98208.59;;;17.14;81.82
78117;BME280;69042;59.120;37.904;2023-07-20T06:48:21;98210.25;;;17.15;81.78
78117;BME280;69042;59.120;37.904;2023-07-20T06:50:47;98206.31;;;17.19;81.37
78117;BME280;69042;59.120;37.904;2023-07-20T06:53:14;98213.09;;;17.21;81.17
78117;BME280;69042;59.120;37.904;2023-07-20T06:55:42;98216.06;;;17.18;80.88
78117;BME280;69042;59.120;37.904;2023-07-20T06:58:09;98205.97;;;17.14;81.08
78117;BME280;69042;59.120;37.904;2023-07-20T07:00:35;98215.00;;;17.11;80.63
78117;BME280;69042;59.120;37.904;2023-07-20T07:03:01;98219.63;;;17.09;80.46
78117;BME280;69042;59.120;37.904;2023-07-20T07:05:28;98218.09;;;17.06;80.56
78117;BME280;69042;59.120;37.904;2023-07-20T07:07:54;98229.78;;;17.04;80.63
78117;BME280;69042;59.120;37.904;2023-07-20T07:10:20;98230.09;;;17.01;80.62
78117;BME280;69042;59.120;37.904;2023-07-20T07:12:47;98236.19;;;17.01;80.57
78117;BME280;69042;59.120;37.904;2023-07-20T07:15:13;98229.78;;;17.04;80.85
78117;BME280;69042;59.120;37.904;2023-07-20T07:17:39;98242.00;;;17.05;80.37
78117;BME280;69042;59.120;37.904;2023-07-20T07:20:08;98247.28;;;17.05;80.19
78117;BME280;69042;59.120;37.904;2023-07-20T07:22:35;98227.69;;;17.08;79.93
78117;BME280;69042;59.120;37.904;2023-07-20T07:25:01;98232.63;;;17.11;80.50
78117;BME280;69042;59.120;37.904;2023-07-20T07:27:28;98237.19;;;17.18;80.51
78117;BME280;69042;59.120;37.904;2023-07-20T07:29:55;98232.13;;;17.25;80.12
78117;BME280;69042;59.120;37.904;2023-07-20T07:32:21;98230.66;;;17.31;80.15
78117;BME280;69042;59.120;37.904;2023-07-20T07:34:47;98238.78;;;17.37;79.52
78117;BME280;69042;59.120;37.904;2023-07-20T07:37:14;98228.13;;;17.47;79.63
78117;BME280;69042;59.120;37.904;2023-07-20T07:39:40;98230.50;;;17.58;79.49
78117;BME280;69042;59.120;37.904;2023-07-20T07:42:06;98228.97;;;17.74;79.78
78117;BME280;69042;59.120;37.904;2023-07-20T07:44:32;98231.22;;;17.86;78.71
78117;BME280;69042;59.120;37.904;2023-07-20T07:46:58;98239.50;;;17.92;78.74
78117;BME280;69042;59.120;37.904;2023-07-20T07:49:25;98246.66;;;17.99;78.36
78117;BME280;69042;59.120;37.904;2023-07-20T07:51:51;98249.84;;;18.11;78.56
78117;BME280;69042;59.120;37.904;2023-07-20T07:54:17;98238.31;;;18.20;78.37
78117;BME280;69042;59.120;37.904;2023-07-20T07:56:43;98232.41;;;18.35;78.66
78117;BME280;69042;59.120;37.904;2023-07-20T07:59:10;98230.94;;;18.48;77.78
78117;BME280;69042;59.120;37.904;2023-07-20T08:01:37;98239.75;;;18.57;77.95
78117;BME280;69042;59.120;37.904;2023-07-20T08:04:03;98239.28;;;18.70;76.94
78117;BME280;69042;59.120;37.904;2023-07-20T08:06:29;98237.97;;;18.74;76.96
78117;BME280;69042;59.120;37.904;2023-07-20T08:08:55;98250.41;;;18.82;76.73
78117;BME280;69042;59.120;37.904;2023-07-20T08:11:23;98239.53;;;18.85;76.18
78117;BME280;69042;59.120;37.904;2023-07-20T08:13:49;98253.06;;;18.90;76.33
78117;BME280;69042;59.120;37.904;2023-07-20T08:16:16;98248.44;;;19.00;76.29
78117;BME280;69042;59.120;37.904;2023-07-20T08:18:43;98251.09;;;19.08;76.01
78117;BME280;69042;59.120;37.904;2023-07-20T08:21:10;98245.97;;;19.15;75.11
78117;BME280;69042;59.120;37.904;2023-07-20T08:23:36;98250.78;;;19.20;75.10
78117;BME280;69042;59.120;37.904;2023-07-20T08:26:03;98249.97;;;19.19;74.65
78117;BME280;69042;59.120;37.904;2023-07-20T08:28:29;98252.59;;;19.19;74.22
78117;BME280;69042;59.120;37.904;2023-07-20T08:30:55;98258.72;;;19.20;74.45
78117;BME280;69042;59.120;37.904;2023-07-20T08:33:21;98269.81;;;19.23;74.48
78117;BME280;69042;59.120;37.904;2023-07-20T08:35:49;98249.31;;;19.25;74.05
78117;BME280;69042;59.120;37.904;2023-07-20T08:38:15;98260.22;;;19.22;74.15
78117;BME280;69042;59.120;37.904;2023-07-20T08:40:44;98265.34;;;19.24;74.23
78117;BME280;69042;59.120;37.904;2023-07-20T08:43:13;98252.94;;;19.32;74.50
78117;BME280;69042;59.120;37.904;2023-07-20T08:45:40;98247.78;;;19.47;73.84
78117;BME280;69042;59.120;37.904;2023-07-20T08:48:08;98249.44;;;19.65;73.53
78117;BME280;69042;59.120;37.904;2023-07-20T08:50:35;98245.44;;;19.85;73.22
78117;BME280;69042;59.120;37.904;2023-07-20T08:53:02;98242.88;;;20.08;72.82
78117;BME280;69042;59.120;37.904;2023-07-20T08:55:29;98244.16;;;20.29;72.71
78117;BME280;69042;59.120;37.904;2023-07-20T08:57:57;98251.78;;;20.55;71.98
78117;BME280;69042;59.120;37.904;2023-07-20T09:00:25;98239.31;;;20.72;71.02
78117;BME280;69042;59.120;37.904;2023-07-20T09:02:52;98241.25;;;20.78;70.16
78117;BME280;69042;59.120;37.904;2023-07-20T09:05:22;98250.69;;;20.81;69.71
78117;BME280;69042;59.120;37.904;2023-07-20T09:07:49;98246.88;;;20.83;69.08
78117;BME280;69042;59.120;37.904;2023-07-20T09:10:15;98276.53;;;20.87;69.11
78117;BME280;69042;59.120;37.904;2023-07-20T09:12:42;98256.09;;;20.87;68.43
78117;BME280;69042;59.120;37.904;2023-07-20T09:15:10;98251.97;;;20.85;68.03
78117;BME280;69042;59.120;37.904;2023-07-20T09:17:37;98242.00;;;20.87;68.70
78117;BME280;69042;59.120;37.904;2023-07-20T09:20:05;98238.13;;;20.97;68.48
78117;BME280;69042;59.120;37.904;2023-07-20T09:22:43;98235.88;;;21.09;67.94
78117;BME280;69042;59.120;37.904;2023-07-20T09:25:17;98239.31;;;21.18;67.72
78117;BME280;69042;59.120;37.904;2023-07-20T09:27:46;98234.38;;;21.30;68.34
78117;BME280;69042;59.120;37.904;2023-07-20T09:30:13;98254.34;;;21.49;67.37
78117;BME280;69042;59.120;37.904;2023-07-20T09:35:14;98228.97;;;21.61;67.31
78117;BME280;69042;59.120;37.904;2023-07-20T09:38:00;98238.72;;;21.69;66.66
78117;BME280;69042;59.120;37.904;2023-07-20T09:40:27;98223.75;;;21.68;65.91
78117;BME280;69042;59.120;37.904;2023-07-20T09:42:54;98225.97;;;21.64;65.89
78117;BME280;69042;59.120;37.904;2023-07-20T09:45:40;98237.25;;;21.66;65.53
78117;BME280;69042;59.120;37.904;2023-07-20T09:48:09;98252.66;;;21.71;65.31
78117;BME280;69042;59.120;37.904;2023-07-20T09:50:55;98236.63;;;21.64;64.19
78117;BME280;69042;59.120;37.904;2023-07-20T09:53:24;98235.88;;;21.55;64.65
78117;BME280;69042;59.120;37.904;2023-07-20T09:55:52;98236.31;;;21.44;63.94
78117;BME280;69042;59.120;37.904;2023-07-20T09:58:18;98229.16;;;21.21;64.47
78117;BME280;69042;59.120;37.904;2023-07-20T10:00:45;98237.06;;;21.07;65.09
78117;BME280;69042;59.120;37.904;2023-07-20T10:03:20;98234.94;;;21.02;65.65
78117;BME280;69042;59.120;37.904;2023-07-20T10:06:23;98245.56;;;21.02;65.28
78117;BME280;69042;59.120;37.904;2023-07-20T10:08:42;98258.25;;;20.92;65.73
78117;BME280;69042;59.120;37.904;2023-07-20T10:11:10;98259.63;;;20.88;65.68
78117;BME280;69042;59.120;37.904;2023-07-20T10:13:39;98268.50;;;20.72;65.48
78117;BME280;69042;59.120;37.904;2023-07-20T10:16:10;98268.06;;;20.52;66.02
78117;BME280;69042;59.120;37.904;2023-07-20T10:18:55;98275.13;;;20.28;66.50
78117;BME280;69042;59.120;37.904;2023-07-20T10:21:26;98263.94;;;20.02;67.21
78117;BME280;69042;59.120;37.904;2023-07-20T10:23:52;98269.13;;;19.87;68.54
78117;BME280;69042;59.120;37.904;2023-07-20T10:26:20;98267.66;;;19.84;69.13
78117;BME280;69042;59.120;37.904;2023-07-20T10:28:46;98266.31;;;19.88;69.24
78117;BME280;69042;59.120;37.904;2023-07-20T10:31:13;98273.06;;;19.99;69.58
78117;BME280;69042;59.120;37.904;2023-07-20T10:33:40;98274.69;;;20.08;68.94
78117;BME280;69042;59.120;37.904;2023-07-20T10:36:07;98276.19;;;20.11;67.83
78117;BME280;69042;59.120;37.904;2023-07-20T10:41:19;98290.44;;;20.02;67.83
78117;BME280;69042;59.120;37.904;2023-07-20T10:43:46;98293.94;;;20.02;67.73
78117;BME280;69042;59.120;37.904;2023-07-20T10:46:13;98296.75;;;20.01;67.90
78117;BME280;69042;59.120;37.904;2023-07-20T10:49:02;98293.94;;;20.02;67.65
78117;BME280;69042;59.120;37.904;2023-07-20T10:51:28;98303.38;;;20.05;68.45
78117;BME280;69042;59.120;37.904;2023-07-20T10:53:56;98301.41;;;20.07;68.70
78117;BME280;69042;59.120;37.904;2023-07-20T10:56:27;98301.56;;;20.05;68.47
78117;BME280;69042;59.120;37.904;2023-07-20T10:59:00;98294.97;;;19.93;68.29
78117;BME280;69042;59.120;37.904;2023-07-20T11:01:30;98303.59;;;19.79;68.54
78117;BME280;69042;59.120;37.904;2023-07-20T11:03:58;98305.22;;;19.63;68.59
78117;BME280;69042;59.120;37.904;2023-07-20T11:09:07;98323.94;;;19.37;69.71
78117;BME280;69042;59.120;37.904;2023-07-20T11:11:38;98329.25;;;19.21;69.38
78117;BME280;69042;59.120;37.904;2023-07-20T11:14:06;98325.38;;;19.07;70.09
78117;BME280;69042;59.120;37.904;2023-07-20T11:16:44;98314.13;;;18.97;70.10
78117;BME280;69042;59.120;37.904;2023-07-20T11:19:25;98312.63;;;18.94;71.14
78117;BME280;69042;59.120;37.904;2023-07-20T11:21:56;98309.47;;;18.90;70.46
78117;BME280;69042;59.120;37.904;2023-07-20T11:24:23;98320.81;;;18.75;70.15
78117;BME280;69042;59.120;37.904;2023-07-20T11:26:53;98319.94;;;18.58;70.51
78117;BME280;69042;59.120;37.904;2023-07-20T11:29:21;98335.22;;;18.38;70.72
78117;BME280;69042;59.120;37.904;2023-07-20T11:31:49;98355.78;;;18.18;71.04
78117;BME280;69042;59.120;37.904;2023-07-20T11:34:19;98362.94;;;17.99;71.53
78117;BME280;69042;59.120;37.904;2023-07-20T11:36:49;98369.88;;;17.82;72.02
78117;BME280;69042;59.120;37.904;2023-07-20T11:39:16;98363.84;;;17.72;72.21
78117;BME280;69042;59.120;37.904;2023-07-20T11:41:49;98356.53;;;17.66;73.23
78117;BME280;69042;59.120;37.904;2023-07-20T11:44:23;98372.84;;;17.61;73.75
78117;BME280;69042;59.120;37.904;2023-07-20T11:47:10;98356.63;;;17.56;74.55
78117;BME280;69042;59.120;37.904;2023-07-20T11:49:38;98363.41;;;17.41;74.21
78117;BME280;69042;59.120;37.904;2023-07-20T11:52:06;98352.78;;;17.33;74.70
78117;BME280;69042;59.120;37.904;2023-07-20T11:54:34;98347.84;;;17.38;75.29
78117;BME280;69042;59.120;37.904;2023-07-20T11:57:01;98365.28;;;17.48;75.39
78117;BME280;69042;59.120;37.904;2023-07-20T11:59:27;98361.22;;;17.54;75.80
78117;BME280;69042;59.120;37.904;2023-07-20T12:01:53;98377.66;;;17.66;75.67
78117;BME280;69042;59.120;37.904;2023-07-20T12:04:22;98368.13;;;17.73;75.40
78117;BME280;69042;59.120;37.904;2023-07-20T12:06:53;98368.34;;;17.80;75.50
78117;BME280;69042;59.120;37.904;2023-07-20T12:09:20;98372.59;;;17.73;75.13
78117;BME280;69042;59.120;37.904;2023-07-20T12:11:49;98371.31;;;17.77;75.43
78117;BME280;69042;59.120;37.904;2023-07-20T12:14:16;98401.50;;;17.92;75.92
78117;BME280;69042;59.120;37.904;2023-07-20T12:16:43;98371.56;;;18.09;75.51
78117;BME280;69042;59.120;37.904;2023-07-20T12:19:13;98373.41;;;18.35;75.70
78117;BME280;69042;59.120;37.904;2023-07-20T12:21:41;98361.13;;;18.68;74.65
78117;BME280;69042;59.120;37.904;2023-07-20T12:24:08;98386.56;;;18.96;73.59
78117;BME280;69042;59.120;37.904;2023-07-20T12:26:36;98363.81;;;19.19;73.37
78117;BME280;69042;59.120;37.904;2023-07-20T12:29:02;98368.16;;;19.37;72.04
78117;BME280;69042;59.120;37.904;2023-07-20T12:31:30;98379.09;;;19.50;72.23
78117;BME280;69042;59.120;37.904;2023-07-20T12:33:57;98370.69;;;19.71;71.64
78117;BME280;69042;59.120;37.904;2023-07-20T12:36:24;98371.34;;;19.81;70.42
78117;BME280;69042;59.120;37.904;2023-07-20T12:38:51;98368.19;;;19.86;70.85
78117;BME280;69042;59.120;37.904;2023-07-20T12:41:17;98373.31;;;19.95;69.44
78117;BME280;69042;59.120;37.904;2023-07-20T12:43:44;98376.28;;;20.01;68.57
78117;BME280;69042;59.120;37.904;2023-07-20T12:46:12;98364.38;;;20.05;67.81
78117;BME280;69042;59.120;37.904;2023-07-20T12:48:39;98365.53;;;20.02;67.17
78117;BME280;69042;59.120;37.904;2023-07-20T12:51:08;98372.50;;;19.95;66.29
78117;BME280;69042;59.120;37.904;2023-07-20T12:53:35;98370.31;;;19.90;66.61
78117;BME280;69042;59.120;37.904;2023-07-20T12:56:01;98361.41;;;19.91;66.72
78117;BME280;69042;59.120;37.904;2023-07-20T12:58:27;98376.81;;;19.96;66.73
78117;BME280;69042;59.120;37.904;2023-07-20T13:00:54;98368.84;;;20.04;66.59
78117;BME280;69042;59.120;37.904;2023-07-20T13:03:20;98390.53;;;20.16;66.60
78117;BME280;69042;59.120;37.904;2023-07-20T13:05:47;98365.16;;;20.22;65.81
78117;BME280;69042;59.120;37.904;2023-07-20T13:08:14;98379.41;;;20.29;65.81
78117;BME280;69042;59.120;37.904;2023-07-20T13:10:40;98366.31;;;20.35;65.25
78117;BME280;69042;59.120;37.904;2023-07-20T13:13:06;98368.91;;;20.44;64.95